CYPG

Portage La Prairie Airport

Portage, , Canada
METAR CYPG 192200Z 30003KT 15SM FEW050 BKN080 BKN120 09/M00 A2990 RMK CF1AC4AC2 LAST OBS/NEXT 221100 UTC SLP131
Observed Flight Rules
Oct-19 @ 22:00 UTC (5 hours ago) Visual Flight Rules
Wind Visibility Clouds
300° at 3 knots 15 miles
  • Few at 5,000' AGL
  • Broken at 8,000' AGL
  • Broken at 12,000' AGL
Temperatures Readings
Current 9°C / 48°F
Dewpoint 0°C / 32°F
Humidity 54%
Altimeter 29.9" Hg
Pressure 1013.1 hPa
Elevation 269
METAR CYPG 192200Z 30003KT 15SM FEW050 BKN080 BKN120 09/M00 A2990 RMK CF1AC4AC2 LAST OBS/NEXT 221100 UTC SLP131
Observed Flight Rules
Oct-19 @ 22:00 UTC
(5 hours ago)
VFR
Wind Visibility
300° at 3 knots 15 miles
Clouds
  • Few at 5,000' AGL
  • Broken at 8,000' AGL
  • Broken at 12,000' AGL
Temperature Dewpoint
9°C / 48°F 0°C / 32°F
Humidity Altimeter Pressure
54% 29.9" Hg 1013.1 hPa